Time;durP1;ratioP1;P1;durP2;ratioP2;P2;SDS_P1;SDS_P2;PMS_P1;PMS_P2;Temp;Humidity;BMP_temperature;BMP_pressure;BME280_temperature;BME280_humidity;BME280_pressure;Samples;Min_cycle;Max_cycle;Signal;HPM_P1;HPM_P2
2021/06/21 00:02:10;;;;;;;66.87;61.28;;;;;;;;;;4290732;33;20509;-85
2021/06/21 00:04:41;;;;;;;62.45;57.38;;;;;;;;;;4280880;33;20226;-83
2021/06/21 00:07:09;;;;;;;50.90;46.30;;;;;;;;;;4294895;33;20510;-88
2021/06/21 00:09:40;;;;;;;47.58;43.47;;;;;;;;;;4278095;33;20178;-86
2021/06/21 00:12:09;;;;;;;49.53;45.00;;;;;;;;;;4292083;33;20282;-84
2021/06/21 00:14:45;;;;;;;57.60;52.22;;;;;;;;;;4293849;33;20108;-84
2021/06/21 00:17:16;;;;;;;60.35;54.78;;;;;;;;;;4293666;33;20156;-91
2021/06/21 00:19:45;;;;;;;57.88;52.90;;;;;;;;;;4293116;33;20503;-86
2021/06/21 00:22:15;;;;;;;57.22;52.00;;;;;;;;;;4292817;33;20766;-81
2021/06/21 00:24:44;;;;;;;48.75;44.67;;;;;;;;;;4291154;33;20110;-81
2021/06/21 00:27:12;;;;;;;51.70;47.40;;;;;;;;;;4293020;33;20136;-83
2021/06/21 00:29:42;;;;;;;50.97;46.65;;;;;;;;;;4293807;33;20649;-84
2021/06/21 00:32:13;;;;;;;51.60;47.33;;;;;;;;;;4292876;33;20075;-86
2021/06/21 00:34:42;;;;;;;60.20;55.53;;;;;;;;;;4275392;33;20120;-88
2021/06/21 00:37:13;;;;;;;54.58;50.47;;;;;;;;;;4294006;33;20128;-82
2021/06/21 00:39:45;;;;;;;55.28;51.17;;;;;;;;;;4295575;33;20071;-88
2021/06/21 00:42:16;;;;;;;56.65;52.15;;;;;;;;;;4293801;33;20199;-82
2021/06/21 00:44:46;;;;;;;47.90;44.17;;;;;;;;;;4293150;33;20147;-90
2021/06/21 00:47:18;;;;;;;58.58;53.38;;;;;;;;;;4294599;33;20123;-82
2021/06/21 00:49:46;;;;;;;56.90;51.90;;;;;;;;;;4293493;33;20116;-81
2021/06/21 00:52:21;;;;;;;55.58;50.80;;;;;;;;;;4294057;33;20061;-92
2021/06/21 00:55:00;;;;;;;56.45;51.37;;;;;;;;;;4292000;33;20114;-85
2021/06/21 00:57:32;;;;;;;53.72;49.03;;;;;;;;;;4292601;33;20084;-86
2021/06/21 01:00:04;;;;;;;52.42;47.72;;;;;;;;;;4293892;33;20391;-83
2021/06/21 01:02:35;;;;;;;51.47;46.80;;;;;;;;;;4293883;33;20444;-87
2021/06/21 01:05:08;;;;;;;49.72;45.40;;;;;;;;;;4287716;33;20112;-88
2021/06/21 01:07:39;;;;;;;45.90;41.80;;;;;;;;;;4291532;33;20075;-83
2021/06/21 01:10:08;;;;;;;49.72;45.25;;;;;;;;;;4277251;33;20158;-91
2021/06/21 01:12:57;;;;;;;49.38;44.78;;;;;;;;;;4291922;33;20090;-84
2021/06/21 01:15:30;;;;;;;40.78;37.55;;;;;;;;;;4292938;33;20472;-86
2021/06/21 01:18:15;;;;;;;47.58;43.78;;;;;;;;;;4293713;33;20057;-84
2021/06/21 01:20:46;;;;;;;48.20;44.47;;;;;;;;;;4293219;33;20177;-86
2021/06/21 01:23:29;;;;;;;48.23;44.23;;;;;;;;;;4289588;33;20221;-84
2021/06/21 01:26:00;;;;;;;44.97;41.17;;;;;;;;;;4289451;33;20752;-84
2021/06/21 01:28:48;;;;;;;43.22;39.53;;;;;;;;;;4298677;33;20088;-80
2021/06/21 01:31:24;;;;;;;42.40;38.85;;;;;;;;;;4301290;33;20460;-84
2021/06/21 01:33:55;;;;;;;42.17;38.58;;;;;;;;;;4285171;33;20995;-85
2021/06/21 01:36:25;;;;;;;43.10;39.35;;;;;;;;;;4283383;33;20119;-84
2021/06/21 01:38:59;;;;;;;43.63;39.95;;;;;;;;;;4292144;33;20092;-85
2021/06/21 01:41:31;;;;;;;51.88;47.17;;;;;;;;;;4290488;33;20049;-86
2021/06/21 01:44:00;;;;;;;51.55;47.03;;;;;;;;;;4289904;33;20148;-86
2021/06/21 01:46:32;;;;;;;51.53;46.75;;;;;;;;;;4292328;33;20060;-85
2021/06/21 01:49:22;;;;;;;42.65;39.00;;;;;;;;;;4302759;33;20119;-79
2021/06/21 01:51:56;;;;;;;42.42;38.67;;;;;;;;;;4284126;33;20118;-83
2021/06/21 01:54:29;;;;;;;47.22;43.50;;;;;;;;;;4281305;33;20166;-84
2021/06/21 01:57:03;;;;;;;45.65;41.95;;;;;;;;;;4283907;33;20126;-88
2021/06/21 01:59:31;;;;;;;45.78;41.83;;;;;;;;;;4277545;33;20077;-81
2021/06/21 02:02:02;;;;;;;38.97;35.83;;;;;;;;;;4282550;33;20653;-87
2021/06/21 02:04:33;;;;;;;39.35;35.92;;;;;;;;;;4288239;33;20128;-83
2021/06/21 02:07:02;;;;;;;48.25;43.58;;;;;;;;;;4292464;33;20087;-83
2021/06/21 02:09:34;;;;;;;44.72;40.75;;;;;;;;;;4275924;33;20105;-84
2021/06/21 02:12:06;;;;;;;47.03;43.05;;;;;;;;;;4286473;33;20108;-86
2021/06/21 02:14:35;;;;;;;45.65;41.53;;;;;;;;;;4280969;33;20068;-84
2021/06/21 02:17:04;;;;;;;45.00;40.90;;;;;;;;;;4286451;33;20067;-84
2021/06/21 02:19:33;;;;;;;38.30;34.97;;;;;;;;;;4283418;33;20110;-82
2021/06/21 02:22:04;;;;;;;37.38;34.13;;;;;;;;;;4286457;33;20076;-83
2021/06/21 02:24:35;;;;;;;36.55;33.38;;;;;;;;;;4270130;33;20160;-86
2021/06/21 02:27:04;;;;;;;34.22;31.12;;;;;;;;;;4287202;33;20813;-83
2021/06/21 02:29:35;;;;;;;32.03;29.60;;;;;;;;;;4289336;33;20458;-85
2021/06/21 02:32:06;;;;;;;32.60;29.83;;;;;;;;;;4291264;33;20096;-81
2021/06/21 02:34:38;;;;;;;36.28;33.42;;;;;;;;;;4290709;33;20186;-87
2021/06/21 02:37:10;;;;;;;36.42;33.50;;;;;;;;;;4290778;33;20242;-81
2021/06/21 02:39:41;;;;;;;36.22;33.33;;;;;;;;;;4281696;33;20487;-82
2021/06/21 02:42:10;;;;;;;29.33;27.08;;;;;;;;;;4290606;33;20140;-84
2021/06/21 02:44:41;;;;;;;30.00;27.42;;;;;;;;;;4290173;33;20546;-83
2021/06/21 02:47:10;;;;;;;41.50;38.13;;;;;;;;;;4291160;33;20122;-81
2021/06/21 02:49:38;;;;;;;42.03;38.38;;;;;;;;;;4276909;33;20158;-86
2021/06/21 02:52:14;;;;;;;41.00;37.50;;;;;;;;;;4274234;33;20871;-84
2021/06/21 02:54:52;;;;;;;40.97;37.27;;;;;;;;;;4274537;33;20116;-80
2021/06/21 02:57:27;;;;;;;41.28;37.55;;;;;;;;;;4274113;33;20270;-83
2021/06/21 02:59:58;;;;;;;39.63;36.17;;;;;;;;;;4274399;33;20219;-82
2021/06/21 03:02:31;;;;;;;38.50;35.30;;;;;;;;;;4279005;33;20114;-87
2021/06/21 03:05:00;;;;;;;38.25;34.55;;;;;;;;;;4263661;33;20154;-84
2021/06/21 03:07:32;;;;;;;37.85;33.88;;;;;;;;;;4278441;33;20159;-87
2021/06/21 03:10:03;;;;;;;28.92;26.37;;;;;;;;;;4274349;33;20131;-83
2021/06/21 03:15:22;;;;;;;31.30;28.60;;;;;;;;;;4291756;33;20496;-83
2021/06/21 03:17:54;;;;;;;31.60;29.10;;;;;;;;;;4297790;33;20120;-85
2021/06/21 03:20:25;;;;;;;31.40;28.87;;;;;;;;;;4306260;33;20074;-84
2021/06/21 03:22:58;;;;;;;30.52;28.00;;;;;;;;;;4318801;27;20108;-87
2021/06/21 03:25:31;;;;;;;30.90;28.40;;;;;;;;;;4300308;33;20123;-84
2021/06/21 03:28:06;;;;;;;29.90;27.20;;;;;;;;;;4295767;33;20130;-87
2021/06/21 03:30:42;;;;;;;28.80;26.48;;;;;;;;;;4306035;33;20104;-80
2021/06/21 03:33:14;;;;;;;29.52;26.65;;;;;;;;;;4305326;33;20111;-88
2021/06/21 03:35:45;;;;;;;29.20;26.55;;;;;;;;;;4300324;33;20151;-87
2021/06/21 03:38:25;;;;;;;27.95;25.77;;;;;;;;;;4302083;33;20057;-86
2021/06/21 03:40:56;;;;;;;28.15;25.85;;;;;;;;;;4290591;33;20080;-80
2021/06/21 03:43:28;;;;;;;28.05;25.55;;;;;;;;;;4298354;33;20049;-85
2021/06/21 03:45:58;;;;;;;36.60;33.60;;;;;;;;;;4304725;33;20079;-82
2021/06/21 03:48:30;;;;;;;36.00;32.72;;;;;;;;;;4305340;33;20127;-83
2021/06/21 03:50:59;;;;;;;36.05;32.80;;;;;;;;;;4297503;33;20115;-85
2021/06/21 03:53:28;;;;;;;34.75;31.37;;;;;;;;;;4292552;33;20096;-89
2021/06/21 03:55:57;;;;;;;25.42;23.08;;;;;;;;;;4303637;33;20481;-87
2021/06/21 03:58:28;;;;;;;25.05;23.00;;;;;;;;;;4305841;33;20099;-83
2021/06/21 04:00:58;;;;;;;24.75;22.55;;;;;;;;;;4283252;33;20134;-87
2021/06/21 04:03:27;;;;;;;24.63;22.70;;;;;;;;;;4299910;33;20073;-83
2021/06/21 04:05:56;;;;;;;25.20;23.10;;;;;;;;;;4307793;33;20060;-85
2021/06/21 04:08:29;;;;;;;26.48;23.58;;;;;;;;;;4307330;33;20097;-80
2021/06/21 04:10:58;;;;;;;29.48;23.20;;;;;;;;;;4306956;33;20049;-88
2021/06/21 04:13:28;;;;;;;26.48;23.20;;;;;;;;;;4304868;33;20049;-86
2021/06/21 04:15:59;;;;;;;88.62;23.77;;;;;;;;;;4300401;33;20103;-85
2021/06/21 04:18:30;;;;;;;29.58;21.87;;;;;;;;;;4309504;33;20115;-81
2021/06/21 04:20:59;;;;;;;31.65;21.92;;;;;;;;;;4299083;33;20167;-87
2021/06/21 04:23:27;;;;;;;23.38;20.65;;;;;;;;;;4297926;33;20064;-82
2021/06/21 04:25:58;;;;;;;23.25;21.08;;;;;;;;;;4291477;33;20049;-85
2021/06/21 04:28:27;;;;;;;24.95;22.20;;;;;;;;;;4297596;33;20132;-86
2021/06/21 04:30:55;;;;;;;23.77;21.45;;;;;;;;;;4273220;33;20170;-85
2021/06/21 04:33:26;;;;;;;29.30;21.10;;;;;;;;;;4280827;33;20079;-83
2021/06/21 04:35:58;;;;;;;27.58;20.92;;;;;;;;;;4304904;33;20061;-90
2021/06/21 04:38:26;;;;;;;40.17;21.30;;;;;;;;;;4286590;33;20124;-89
2021/06/21 04:40:58;;;;;;;28.15;20.92;;;;;;;;;;4273133;33;20093;-85
2021/06/21 04:43:27;;;;;;;26.60;20.70;;;;;;;;;;4287930;33;20478;-87
2021/06/21 04:45:58;;;;;;;24.87;20.55;;;;;;;;;;4298938;33;20072;-82
2021/06/21 04:48:26;;;;;;;26.77;20.17;;;;;;;;;;4303204;33;20065;-84
2021/06/21 04:50:55;;;;;;;39.42;20.30;;;;;;;;;;4278374;33;20136;-88
2021/06/21 04:53:24;;;;;;;26.70;19.58;;;;;;;;;;4290818;33;20049;-88
2021/06/21 04:55:54;;;;;;;188.75;22.98;;;;;;;;;;4287874;33;20077;-80
2021/06/21 04:58:34;;;;;;;22.05;19.85;;;;;;;;;;4282026;33;20275;-82
2021/06/21 05:01:03;;;;;;;25.05;19.30;;;;;;;;;;4281735;33;20041;-87
2021/06/21 05:03:37;;;;;;;20.08;18.27;;;;;;;;;;4284504;33;20099;-87
2021/06/21 05:06:07;;;;;;;20.60;18.75;;;;;;;;;;4293244;33;20192;-86
2021/06/21 05:08:40;;;;;;;19.95;18.25;;;;;;;;;;4282061;33;20699;-82
2021/06/21 05:11:09;;;;;;;21.83;19.27;;;;;;;;;;4277840;33;20049;-85
2021/06/21 05:13:40;;;;;;;20.83;18.75;;;;;;;;;;4294348;33;20115;-85
2021/06/21 05:16:11;;;;;;;23.95;21.92;;;;;;;;;;4292807;33;20085;-89
2021/06/21 05:18:39;;;;;;;23.90;21.77;;;;;;;;;;4284371;33;20135;-91
2021/06/21 05:21:08;;;;;;;21.02;19.12;;;;;;;;;;4281705;33;20071;-88
2021/06/21 05:23:38;;;;;;;20.58;18.75;;;;;;;;;;4298524;33;20083;-84
2021/06/21 05:26:07;;;;;;;19.98;18.48;;;;;;;;;;4299750;33;20135;-87
2021/06/21 05:28:35;;;;;;;20.15;18.37;;;;;;;;;;4295822;33;20100;-86
2021/06/21 05:31:07;;;;;;;21.08;19.23;;;;;;;;;;4299444;33;20057;-83
2021/06/21 05:33:35;;;;;;;20.42;18.92;;;;;;;;;;4310822;33;20091;-83
2021/06/21 05:36:04;;;;;;;21.55;19.90;;;;;;;;;;4300097;33;20045;-83
2021/06/21 05:38:32;;;;;;;20.60;18.92;;;;;;;;;;4286127;33;20057;-84
2021/06/21 05:41:01;;;;;;;24.35;22.50;;;;;;;;;;4306347;33;20061;-86
2021/06/21 05:43:30;;;;;;;21.85;20.08;;;;;;;;;;4307700;33;20048;-85
2021/06/21 05:45:58;;;;;;;22.90;20.62;;;;;;;;;;4292223;33;20143;-91
2021/06/21 05:48:30;;;;;;;37.85;21.42;;;;;;;;;;4294450;33;20073;-83
2021/06/21 05:51:02;;;;;;;24.35;21.92;;;;;;;;;;4307019;33;20486;-87
2021/06/21 05:53:33;;;;;;;26.52;23.75;;;;;;;;;;4305315;33;20075;-86
2021/06/21 05:56:01;;;;;;;67.28;26.12;;;;;;;;;;4274780;33;20072;-88
2021/06/21 05:58:30;;;;;;;102.90;26.25;;;;;;;;;;4301504;33;20372;-89
2021/06/21 06:01:01;;;;;;;36.45;25.20;;;;;;;;;;4311833;33;20545;-82
2021/06/21 06:03:30;;;;;;;37.65;25.83;;;;;;;;;;4295665;33;21908;-85
2021/06/21 06:06:01;;;;;;;27.83;25.15;;;;;;;;;;4289612;33;20827;-84
2021/06/21 06:08:29;;;;;;;27.23;24.42;;;;;;;;;;4303573;33;20049;-83
2021/06/21 06:11:01;;;;;;;34.45;23.10;;;;;;;;;;4307655;33;20048;-87
2021/06/21 06:13:29;;;;;;;41.17;22.83;;;;;;;;;;4282904;33;20127;-83
2021/06/21 06:16:00;;;;;;;27.52;23.42;;;;;;;;;;4286973;33;22058;-85
2021/06/21 06:18:30;;;;;;;32.40;29.20;;;;;;;;;;4308553;33;20143;-81
2021/06/21 06:21:02;;;;;;;30.75;28.45;;;;;;;;;;4294919;33;20075;-84
2021/06/21 06:23:38;;;;;;;28.65;25.65;;;;;;;;;;4295586;33;20118;-87
2021/06/21 06:26:07;;;;;;;50.88;28.00;;;;;;;;;;4298485;33;20134;-84
2021/06/21 06:28:38;;;;;;;44.72;28.58;;;;;;;;;;4301791;33;20088;-85
2021/06/21 06:31:10;;;;;;;35.22;28.40;;;;;;;;;;4299246;33;20547;-83
2021/06/21 06:33:39;;;;;;;29.75;26.95;;;;;;;;;;4305454;33;21030;-80
2021/06/21 06:36:08;;;;;;;40.83;20.05;;;;;;;;;;4301804;33;20060;-87
2021/06/21 06:38:36;;;;;;;151.80;24.95;;;;;;;;;;4288644;33;20128;-84
2021/06/21 06:41:05;;;;;;;51.65;23.90;;;;;;;;;;4303529;33;20041;-87
2021/06/21 06:43:36;;;;;;;23.80;22.20;;;;;;;;;;4299208;33;20118;-88
2021/06/21 06:46:05;;;;;;;23.90;22.00;;;;;;;;;;4295998;33;20107;-85
2021/06/21 06:48:34;;;;;;;19.67;18.27;;;;;;;;;;4298490;33;20502;-90
2021/06/21 06:51:02;;;;;;;29.70;27.40;;;;;;;;;;4286782;33;20132;-82
2021/06/21 06:53:40;;;;;;;29.83;27.50;;;;;;;;;;4300412;33;20074;-90
2021/06/21 06:58:58;;;;;;;28.23;26.12;;;;;;;;;;4283123;33;20120;-87
2021/06/21 07:01:30;;;;;;;29.30;26.95;;;;;;;;;;4300304;33;20110;-84
2021/06/21 07:03:58;;;;;;;28.00;25.65;;;;;;;;;;4299384;33;20097;-84
2021/06/21 07:06:29;;;;;;;28.95;26.70;;;;;;;;;;4299915;33;20084;-86
2021/06/21 07:08:58;;;;;;;30.42;28.15;;;;;;;;;;4285755;33;20150;-86
2021/06/21 07:11:29;;;;;;;28.95;26.65;;;;;;;;;;4299614;33;20053;-86
2021/06/21 07:13:58;;;;;;;28.80;26.40;;;;;;;;;;4299537;33;20156;-87
2021/06/21 07:16:26;;;;;;;78.50;21.55;;;;;;;;;;4299646;33;20056;-86
2021/06/21 07:18:54;;;;;;;24.90;21.10;;;;;;;;;;4297811;33;20107;-81
2021/06/21 07:21:25;;;;;;;21.92;20.00;;;;;;;;;;4297479;33;20146;-81
2021/06/21 07:23:54;;;;;;;19.08;17.77;;;;;;;;;;4292935;33;20048;-88
2021/06/21 07:26:25;;;;;;;19.05;17.77;;;;;;;;;;4299420;33;20064;-87
2021/06/21 07:28:56;;;;;;;19.40;18.00;;;;;;;;;;4298539;33;20108;-82
2021/06/21 07:31:27;;;;;;;24.92;23.12;;;;;;;;;;4300420;33;20417;-79
2021/06/21 07:33:56;;;;;;;26.20;24.20;;;;;;;;;;4299026;33;20362;-83
2021/06/21 07:36:24;;;;;;;25.30;23.50;;;;;;;;;;4284907;33;20061;-88
2021/06/21 07:38:55;;;;;;;26.15;24.10;;;;;;;;;;4298757;33;20065;-87
2021/06/21 07:41:24;;;;;;;29.00;26.70;;;;;;;;;;4299268;33;20071;-85
2021/06/21 07:43:52;;;;;;;28.25;25.83;;;;;;;;;;4298499;33;20155;-79
2021/06/21 07:46:24;;;;;;;27.50;25.30;;;;;;;;;;4298329;33;20116;-91
2021/06/21 07:48:56;;;;;;;27.60;25.37;;;;;;;;;;4296539;33;20148;-85
2021/06/21 07:51:27;;;;;;;29.23;26.92;;;;;;;;;;4296839;33;20060;-82
2021/06/21 07:53:56;;;;;;;32.65;30.23;;;;;;;;;;4292727;33;20637;-88
2021/06/21 07:56:25;;;;;;;40.75;37.42;;;;;;;;;;4295728;33;20041;-80
2021/06/21 07:58:53;;;;;;;41.70;38.08;;;;;;;;;;4299722;33;20097;-81
2021/06/21 08:01:25;;;;;;;29.85;27.75;;;;;;;;;;4296792;33;20079;-84
2021/06/21 08:03:57;;;;;;;35.88;33.17;;;;;;;;;;4292569;33;20434;-79
2021/06/21 08:06:27;;;;;;;37.20;34.55;;;;;;;;;;4294712;33;20072;-87
2021/06/21 08:08:59;;;;;;;38.40;35.42;;;;;;;;;;4298583;33;20151;-83
2021/06/21 08:11:30;;;;;;;41.70;38.60;;;;;;;;;;4298820;33;20083;-85
2021/06/21 08:14:02;;;;;;;45.70;41.65;;;;;;;;;;4285803;33;20123;-85
2021/06/21 08:16:31;;;;;;;44.47;40.58;;;;;;;;;;4299649;33;20101;-80
2021/06/21 08:19:03;;;;;;;47.17;42.72;;;;;;;;;;4296038;33;20114;-81
2021/06/21 08:21:32;;;;;;;46.47;42.28;;;;;;;;;;4295581;33;20160;-82
2021/06/21 08:24:01;;;;;;;40.22;36.72;;;;;;;;;;4284443;33;20748;-86
2021/06/21 08:26:31;;;;;;;38.55;35.55;;;;;;;;;;4293525;33;20060;-83
2021/06/21 08:29:02;;;;;;;47.53;43.60;;;;;;;;;;4292195;33;21796;-83
2021/06/21 08:31:34;;;;;;;49.88;45.33;;;;;;;;;;4280049;33;20491;-84
2021/06/21 08:34:05;;;;;;;50.38;45.65;;;;;;;;;;4289502;33;20545;-87
2021/06/21 08:36:34;;;;;;;43.95;40.03;;;;;;;;;;4290850;33;20048;-85
2021/06/21 08:39:05;;;;;;;46.83;42.67;;;;;;;;;;4290503;33;20071;-86
2021/06/21 08:41:37;;;;;;;55.50;51.30;;;;;;;;;;4291499;33;20946;-83
2021/06/21 08:44:06;;;;;;;55.05;50.55;;;;;;;;;;4296277;33;20997;-80
2021/06/21 08:46:35;;;;;;;57.67;53.13;;;;;;;;;;4292412;33;20139;-84
2021/06/21 08:49:07;;;;;;;60.95;56.25;;;;;;;;;;4292610;33;20053;-83
2021/06/21 08:51:36;;;;;;;62.35;57.25;;;;;;;;;;4302384;33;20408;-82
2021/06/21 08:54:07;;;;;;;63.40;58.08;;;;;;;;;;4296717;33;20088;-89
2021/06/21 08:56:39;;;;;;;59.03;53.85;;;;;;;;;;4291725;33;20324;-85
2021/06/21 08:59:09;;;;;;;77.28;70.00;;;;;;;;;;4292065;33;20057;-84
2021/06/21 09:01:39;;;;;;;82.07;74.03;;;;;;;;;;4297694;33;20100;-84
2021/06/21 09:04:11;;;;;;;79.28;71.57;;;;;;;;;;4292595;33;20335;-85
2021/06/21 09:06:43;;;;;;;74.18;67.35;;;;;;;;;;4293099;33;20116;-81
2021/06/21 09:09:11;;;;;;;77.75;70.22;;;;;;;;;;4302756;33;20049;-86
2021/06/21 09:11:47;;;;;;;80.38;72.53;;;;;;;;;;4297368;33;20102;-80
2021/06/21 09:14:28;;;;;;;86.00;77.78;;;;;;;;;;4294009;33;20465;-81
2021/06/21 09:16:58;;;;;;;86.07;77.60;;;;;;;;;;4291977;33;20757;-85
2021/06/21 09:19:27;;;;;;;86.78;78.70;;;;;;;;;;4291698;33;20092;-86
2021/06/21 09:21:58;;;;;;;64.50;58.80;;;;;;;;;;4294846;33;20116;-85
2021/06/21 09:24:28;;;;;;;36.72;33.92;;;;;;;;;;4293209;33;20155;-83
2021/06/21 09:26:58;;;;;;;10.73;9.93;;;;;;;;;;4295464;33;20107;-81
2021/06/21 09:29:42;;;;;;;3.55;1.00;;;;;;;;;;4291200;33;20594;-85
2021/06/21 09:32:39;;;;;;;4.80;1.10;;;;;;;;;;4292046;33;20097;-81
2021/06/21 09:35:31;;;;;;;3.97;0.80;;;;;;;;;;4294620;33;20082;-80
2021/06/21 09:38:00;;;;;;;2.67;0.82;;;;;;;;;;4289971;33;20077;-87
2021/06/21 09:40:39;;;;;;;2.22;0.65;;;;;;;;;;4290150;33;20065;-83
2021/06/21 09:43:29;;;;;;;2.65;0.80;;;;;;;;;;4298072;33;20134;-82
2021/06/21 09:46:07;;;;;;;2.25;0.77;;;;;;;;;;4305371;33;20100;-86
2021/06/21 09:48:39;;;;;;;2.90;0.80;;;;;;;;;;4291560;33;20049;-83
2021/06/21 09:51:28;;;;;;;4.68;0.77;;;;;;;;;;4293350;33;20149;-84
2021/06/21 09:53:56;;;;;;;4.30;0.93;;;;;;;;;;4291282;33;20112;-85
2021/06/21 09:56:32;;;;;;;1.85;0.80;;;;;;;;;;4293612;33;20057;-83
2021/06/21 09:59:01;;;;;;;3.75;0.90;;;;;;;;;;4278436;33;20184;-82
2021/06/21 10:01:31;;;;;;;1.87;0.82;;;;;;;;;;4277095;33;20136;-82
2021/06/21 10:04:03;;;;;;;3.30;0.73;;;;;;;;;;4297739;33;20087;-86
2021/06/21 10:06:37;;;;;;;3.47;0.60;;;;;;;;;;4300962;33;20053;-85
2021/06/21 10:09:06;;;;;;;2.78;0.73;;;;;;;;;;4305838;33;20071;-84
2021/06/21 10:11:37;;;;;;;2.37;0.70;;;;;;;;;;4304782;33;20844;-80
2021/06/21 10:14:09;;;;;;;6.70;0.95;;;;;;;;;;4302180;33;20072;-81
2021/06/21 10:16:40;;;;;;;4.10;0.90;;;;;;;;;;4300924;33;20130;-86
2021/06/21 10:19:09;;;;;;;3.22;1.15;;;;;;;;;;4287514;33;20119;-86
2021/06/21 10:21:40;;;;;;;2.65;0.80;;;;;;;;;;4296040;33;20087;-84
2021/06/21 10:24:11;;;;;;;3.30;0.82;;;;;;;;;;4301460;33;20045;-84
2021/06/21 10:26:42;;;;;;;3.33;0.65;;;;;;;;;;4292448;33;20116;-83
2021/06/21 10:29:10;;;;;;;2.58;0.85;;;;;;;;;;4291236;33;20061;-83
2021/06/21 10:31:43;;;;;;;2.85;0.95;;;;;;;;;;4293376;33;20139;-82
2021/06/21 10:34:16;;;;;;;2.15;0.52;;;;;;;;;;4294399;33;20136;-85
2021/06/21 10:36:57;;;;;;;2.42;1.00;;;;;;;;;;4295529;33;20556;-84
2021/06/21 10:39:30;;;;;;;3.33;0.90;;;;;;;;;;4296005;33;20066;-80
2021/06/21 10:42:08;;;;;;;3.25;1.23;;;;;;;;;;4309282;33;20403;-84
2021/06/21 10:44:40;;;;;;;4.22;0.95;;;;;;;;;;4292372;33;20127;-83
2021/06/21 10:47:24;;;;;;;3.80;0.90;;;;;;;;;;4296496;33;20065;-81
2021/06/21 10:49:56;;;;;;;1.85;0.70;;;;;;;;;;4292620;33;20159;-84
2021/06/21 10:52:35;;;;;;;2.87;1.10;;;;;;;;;;4293850;33;20056;-81
2021/06/21 10:55:28;;;;;;;3.90;0.93;;;;;;;;;;4294618;33;20094;-84
2021/06/21 10:58:04;;;;;;;4.57;1.17;;;;;;;;;;4301230;33;20262;-89
2021/06/21 11:00:45;;;;;;;5.43;1.33;;;;;;;;;;4305418;33;21823;-82
2021/06/21 11:03:33;;;;;;;3.08;1.00;;;;;;;;;;4293078;33;20041;-84
2021/06/21 11:06:06;;;;;;;4.32;1.20;;;;;;;;;;4297561;33;20061;-84
2021/06/21 11:08:49;;;;;;;3.65;1.35;;;;;;;;;;4303589;33;20048;-82
2021/06/21 11:11:38;;;;;;;3.97;1.17;;;;;;;;;;4298122;33;20130;-85
2021/06/21 11:14:09;;;;;;;5.20;1.58;;;;;;;;;;4297029;33;20057;-85
2021/06/21 11:16:40;;;;;;;4.60;1.40;;;;;;;;;;4294984;33;20487;-83
2021/06/21 11:19:23;;;;;;;5.10;1.23;;;;;;;;;;4291565;33;20080;-85
2021/06/21 11:21:53;;;;;;;6.45;1.60;;;;;;;;;;4290848;33;20068;-82
2021/06/21 11:24:38;;;;;;;4.78;1.37;;;;;;;;;;4293477;33;20123;-81
2021/06/21 11:27:11;;;;;;;3.50;1.10;;;;;;;;;;4290959;33;20513;-86
2021/06/21 11:29:48;;;;;;;3.90;1.12;;;;;;;;;;4291514;33;20420;-81
2021/06/21 11:32:19;;;;;;;4.35;1.20;;;;;;;;;;4297774;33;20045;-86
2021/06/21 11:34:59;;;;;;;6.97;1.75;;;;;;;;;;4288064;33;20632;-86
2021/06/21 11:37:34;;;;;;;4.75;1.58;;;;;;;;;;4288518;33;20194;-82
2021/06/21 11:40:24;;;;;;;4.90;1.60;;;;;;;;;;4288738;33;20119;-86
2021/06/21 11:42:57;;;;;;;10.95;2.00;;;;;;;;;;4288463;33;20045;-83
2021/06/21 11:45:49;;;;;;;9.55;1.90;;;;;;;;;;4290736;33;20223;-88
2021/06/21 11:48:25;;;;;;;4.75;1.62;;;;;;;;;;4303280;33;20090;-85
2021/06/21 11:50:58;;;;;;;7.37;1.87;;;;;;;;;;4292724;33;20238;-84
2021/06/21 11:53:28;;;;;;;7.25;1.75;;;;;;;;;;4294554;33;23273;-87
2021/06/21 11:55:58;;;;;;;10.82;2.00;;;;;;;;;;4286424;33;20104;-83
2021/06/21 11:58:29;;;;;;;7.65;1.85;;;;;;;;;;4288620;33;20052;-81
2021/06/21 12:01:00;;;;;;;8.65;1.55;;;;;;;;;;4310583;33;20119;-83
2021/06/21 12:03:33;;;;;;;9.18;1.75;;;;;;;;;;4304389;33;20423;-84
2021/06/21 12:06:04;;;;;;;7.95;1.83;;;;;;;;;;4302456;33;20120;-86
2021/06/21 12:08:36;;;;;;;7.72;1.80;;;;;;;;;;4303476;33;20471;-84
2021/06/21 12:11:31;;;;;;;7.32;1.80;;;;;;;;;;4301659;33;20052;-86
2021/06/21 12:14:05;;;;;;;5.68;1.27;;;;;;;;;;4302475;33;20060;-83
2021/06/21 12:16:39;;;;;;;4.62;1.30;;;;;;;;;;4307244;33;20084;-86
2021/06/21 12:19:08;;;;;;;3.90;1.20;;;;;;;;;;4302625;33;20100;-84
2021/06/21 12:21:38;;;;;;;4.45;1.40;;;;;;;;;;4305506;33;20068;-85
2021/06/21 12:24:26;;;;;;;4.90;1.30;;;;;;;;;;4296922;33;20539;-87
2021/06/21 12:27:04;;;;;;;6.60;1.50;;;;;;;;;;4294756;33;20104;-84
2021/06/21 12:29:32;;;;;;;4.87;1.30;;;;;;;;;;4286416;33;20108;-83
2021/06/21 12:32:08;;;;;;;5.65;1.30;;;;;;;;;;4302290;33;20060;-86
2021/06/21 12:34:48;;;;;;;5.35;1.40;;;;;;;;;;4293572;33;20095;-82
2021/06/21 12:37:31;;;;;;;5.53;1.60;;;;;;;;;;4290370;33;20100;-89
2021/06/21 12:40:03;;;;;;;5.53;1.60;;;;;;;;;;4278193;33;20071;-85
2021/06/21 12:42:34;;;;;;;4.72;1.42;;;;;;;;;;4294357;33;20124;-88
2021/06/21 12:45:26;;;;;;;5.03;1.50;;;;;;;;;;4303635;33;20052;-83
2021/06/21 12:47:57;;;;;;;6.40;1.52;;;;;;;;;;4292361;33;20511;-86
2021/06/21 12:50:26;;;;;;;8.00;1.50;;;;;;;;;;4291265;33;20147;-84
2021/06/21 12:52:57;;;;;;;4.90;1.50;;;;;;;;;;4293852;33;20118;-82
2021/06/21 12:55:30;;;;;;;7.22;1.70;;;;;;;;;;4281084;33;20423;-87
2021/06/21 12:58:06;;;;;;;11.90;1.80;;;;;;;;;;4292286;33;20244;-87
2021/06/21 13:00:39;;;;;;;11.95;1.87;;;;;;;;;;4306626;33;20071;-81
2021/06/21 13:03:08;;;;;;;;;;;;;;;;;;4292517;33;20154;-83
2021/06/21 13:05:42;;;;;;;2.45;1.12;;;;;;;;;;4290615;33;20018;-86
2021/06/21 13:08:16;;;;;;;4.40;1.62;;;;;;;;;;4281931;33;20106;-85
2021/06/21 13:10:44;;;;;;;3.30;1.15;;;;;;;;;;4290706;33;20052;-85
2021/06/21 13:13:13;;;;;;;6.72;1.40;;;;;;;;;;4297941;33;20103;-84
2021/06/21 13:15:43;;;;;;;5.90;1.42;;;;;;;;;;4304941;33;20096;-85
2021/06/21 13:18:15;;;;;;;6.03;1.20;;;;;;;;;;4296270;33;20089;-84
2021/06/21 13:20:50;;;;;;;3.58;0.85;;;;;;;;;;4290553;33;20452;-85
2021/06/21 13:23:21;;;;;;;6.97;1.80;;;;;;;;;;4292141;33;20404;-84
2021/06/21 13:25:54;;;;;;;7.07;1.60;;;;;;;;;;4294069;33;20123;-86
2021/06/21 14:03:50;;;;;;;8.00;1.55;;;;;;;;;;4218774;29;20457;-86
2021/06/21 14:06:23;;;;;;;4.95;1.05;;;;;;;;;;4103576;34;20144;-86
2021/06/21 14:08:56;;;;;;;9.05;1.85;;;;;;;;;;4120597;34;20540;-86
2021/06/21 14:11:28;;;;;;;6.53;1.50;;;;;;;;;;4103868;34;20498;-86
2021/06/21 14:14:17;;;;;;;8.75;1.80;;;;;;;;;;4106288;34;20116;-86
2021/06/21 14:16:45;;;;;;;5.53;1.60;;;;;;;;;;4122657;34;20260;-86
2021/06/21 14:19:23;;;;;;;6.97;1.70;;;;;;;;;;4110678;34;20141;-86
2021/06/21 14:21:52;;;;;;;5.45;1.35;;;;;;;;;;4120937;34;20189;-86
2021/06/21 14:24:21;;;;;;;7.03;1.73;;;;;;;;;;4108586;34;20116;-86
2021/06/21 14:26:54;;;;;;;8.52;2.00;;;;;;;;;;4128684;34;20067;-86
2021/06/21 14:29:23;;;;;;;9.65;2.25;;;;;;;;;;4123365;34;20060;-86
2021/06/21 14:31:54;;;;;;;8.43;1.67;;;;;;;;;;4129008;34;20198;-86
2021/06/21 14:34:23;;;;;;;9.20;1.92;;;;;;;;;;4122090;34;20053;-86
2021/06/21 14:36:54;;;;;;;9.32;2.00;;;;;;;;;;4130062;34;20159;-86
2021/06/21 14:39:25;;;;;;;7.43;1.60;;;;;;;;;;4131852;34;20858;-86
2021/06/21 14:41:54;;;;;;;10.88;1.85;;;;;;;;;;4117935;34;20053;-85
2021/06/21 14:44:25;;;;;;;6.50;1.60;;;;;;;;;;4128725;34;20983;-85
2021/06/21 14:46:54;;;;;;;13.60;2.37;;;;;;;;;;4125806;34;20085;-86
2021/06/21 14:49:24;;;;;;;10.75;1.90;;;;;;;;;;4132594;34;20144;-86
2021/06/21 14:51:55;;;;;;;9.70;1.98;;;;;;;;;;4137716;34;20529;-85
2021/06/21 14:54:24;;;;;;;10.10;1.70;;;;;;;;;;4126336;34;20622;-86
2021/06/21 14:56:52;;;;;;;10.07;2.08;;;;;;;;;;4133502;34;20374;-86
2021/06/21 14:59:23;;;;;;;11.85;2.45;;;;;;;;;;4138907;34;20116;-86
2021/06/21 15:01:52;;;;;;;7.37;1.77;;;;;;;;;;4141535;34;20554;-86
2021/06/21 15:04:23;;;;;;;6.65;1.80;;;;;;;;;;4134113;34;20383;-86
2021/06/21 15:06:54;;;;;;;8.32;1.55;;;;;;;;;;4122178;34;20069;-86
2021/06/21 15:09:23;;;;;;;10.73;1.98;;;;;;;;;;4115436;34;20908;-86
2021/06/21 15:11:54;;;;;;;10.50;1.92;;;;;;;;;;4139471;34;20567;-87
2021/06/21 15:14:23;;;;;;;7.82;2.00;;;;;;;;;;4135050;34;20084;-86
2021/06/21 15:16:54;;;;;;;10.50;1.60;;;;;;;;;;4114634;34;20068;-86
2021/06/21 15:19:25;;;;;;;10.63;2.20;;;;;;;;;;4139272;34;20105;-86
2021/06/21 15:21:56;;;;;;;6.80;1.80;;;;;;;;;;4137816;34;20057;-86
2021/06/21 15:24:24;;;;;;;6.97;1.65;;;;;;;;;;4135783;34;20535;-86
2021/06/21 15:26:56;;;;;;;8.65;1.80;;;;;;;;;;4139679;34;20120;-86
2021/06/21 15:29:26;;;;;;;12.73;2.28;;;;;;;;;;4139818;34;20127;-86
2021/06/21 15:31:54;;;;;;;9.73;2.12;;;;;;;;;;4137265;34;20185;-86
2021/06/21 15:34:23;;;;;;;10.40;1.60;;;;;;;;;;4119087;34;20130;-87
2021/06/21 15:36:54;;;;;;;8.25;1.60;;;;;;;;;;4128614;34;20120;-86